Time;durP1;ratioP1;P1;durP2;ratioP2;P2;SDS_P1;SDS_P2;PMS_P1;PMS_P2;Temp;Humidity;BMP_temperature;BMP_pressure;BME280_temperature;BME280_humidity;BME280_pressure;Samples;Min_cycle;Max_cycle;Signal;HPM_P1;HPM_P2
2021/01/02 00:00:18;;;;;;;9.00;4.45;;;8.50;96.70;;;;;;5083681;28;20036;-71
2021/01/02 00:03:07;;;;;;;6.95;4.25;;;8.50;96.70;;;;;;5078271;28;20040;-72
2021/01/02 00:05:44;;;;;;;6.38;3.95;;;8.60;96.70;;;;;;5079460;28;20047;-72
2021/01/02 00:08:14;;;;;;;7.22;4.22;;;8.60;96.70;;;;;;5086665;28;20047;-71
2021/01/02 00:10:54;;;;;;;5.32;4.10;;;8.60;96.70;;;;;;5077266;28;20211;-71
2021/01/02 00:13:40;;;;;;;7.18;4.03;;;8.60;96.70;;;;;;5080555;28;20047;-71
2021/01/02 00:16:21;;;;;;;4.15;3.42;;;8.60;96.70;;;;;;5080109;28;20078;-72
2021/01/02 00:19:02;;;;;;;8.07;3.42;;;8.60;96.70;;;;;;5078011;28;20043;-71
2021/01/02 00:21:34;;;;;;;5.70;3.53;;;8.60;96.70;;;;;;5089927;28;20596;-72
2021/01/02 00:24:29;;;;;;;5.93;3.05;;;8.60;96.70;;;;;;5092012;28;20044;-72
2021/01/02 00:27:05;;;;;;;5.10;3.40;;;8.50;96.70;;;;;;5079836;28;20131;-72
2021/01/02 00:30:02;;;;;;;5.60;3.35;;;8.50;96.70;;;;;;5060628;28;20048;-71
2021/01/02 00:32:37;;;;;;;;;;;8.50;96.70;;;;;;5075787;28;20112;-72
2021/01/02 00:35:06;;;;;;;5.95;3.42;;;8.40;96.70;;;;;;5086986;28;20004;-71
2021/01/02 00:37:38;;;;;;;4.95;3.40;;;8.40;96.70;;;;;;5077084;28;20044;-71
2021/01/02 00:40:09;;;;;;;5.45;3.20;;;8.40;96.70;;;;;;5078068;28;20036;-71
2021/01/02 00:42:38;;;;;;;4.78;3.13;;;8.40;96.70;;;;;;5074397;28;20402;-72
2021/01/02 00:45:09;;;;;;;7.75;3.03;;;8.40;96.70;;;;;;5069056;28;20055;-72
2021/01/02 00:47:39;;;;;;;5.47;2.60;;;8.40;96.70;;;;;;5084841;28;20043;-72
2021/01/02 00:50:08;;;;;;;6.07;3.10;;;8.40;96.70;;;;;;5078525;28;20054;-72
2021/01/02 00:52:54;;;;;;;6.22;2.70;;;8.40;96.70;;;;;;5081832;28;20067;-72
2021/01/02 00:55:46;;;;;;;5.70;3.28;;;8.40;96.70;;;;;;5081989;28;20512;-72
2021/01/02 00:58:33;;;;;;;6.88;3.97;;;8.40;96.70;;;;;;5086320;28;20036;-71
2021/01/02 01:01:05;;;;;;;6.25;3.47;;;8.40;96.70;;;;;;5084709;28;20042;-72
2021/01/02 01:04:03;;;;;;;7.70;4.40;;;8.30;96.70;;;;;;5067109;28;20031;-71
2021/01/02 01:06:36;;;;;;;6.32;3.22;;;8.30;96.70;;;;;;5078485;28;20050;-72
2021/01/02 01:09:06;;;;;;;6.63;3.53;;;8.20;96.70;;;;;;5076484;28;20143;-71
2021/01/02 01:11:35;;;;;;;7.50;3.53;;;8.30;96.70;;;;;;5079421;28;20129;-71
2021/01/02 01:14:03;;;;;;;7.35;3.53;;;8.30;96.70;;;;;;5078265;28;20493;-72
2021/01/02 01:16:42;;;;;;;6.22;3.58;;;8.20;96.70;;;;;;5083036;28;20036;-72
2021/01/02 01:19:14;;;;;;;6.07;3.20;;;8.20;96.70;;;;;;5077339;28;20796;-71
2021/01/02 01:21:45;;;;;;;6.75;3.33;;;8.20;96.70;;;;;;5076426;28;20117;-71
2021/01/02 01:24:21;;;;;;;5.40;3.25;;;8.20;96.70;;;;;;5058680;28;20588;-72
2021/01/02 01:26:58;;;;;;;;;;;8.20;96.70;;;;;;5077668;28;20140;-71
2021/01/02 01:29:27;;;;;;;5.63;2.67;;;8.20;96.70;;;;;;5081176;28;20519;-71
2021/01/02 01:31:57;;;;;;;3.40;2.55;;;8.20;96.70;;;;;;5077321;28;20056;-71
2021/01/02 01:34:28;;;;;;;4.53;2.85;;;8.20;96.70;;;;;;5085938;28;20413;-71
2021/01/02 01:36:55;;;;;;;4.03;2.35;;;8.20;96.70;;;;;;5066565;28;20044;-72
2021/01/02 01:39:24;;;;;;;4.20;2.20;;;8.20;96.70;;;;;;5075319;28;20044;-72
2021/01/02 01:41:57;;;;;;;3.78;2.08;;;8.20;96.70;;;;;;5095201;28;20040;-71
2021/01/02 01:44:40;;;;;;;4.15;2.00;;;8.10;96.70;;;;;;5075042;28;20480;-72
2021/01/02 01:47:16;;;;;;;2.88;1.55;;;8.10;96.70;;;;;;5069464;28;20044;-76
2021/01/02 01:49:58;;;;;;;;;;;8.10;96.70;;;;;;5081412;28;20055;-75
2021/01/02 01:52:38;;;;;;;4.50;1.77;;;8.10;96.70;;;;;;5077385;28;20022;-76
2021/01/02 01:55:07;;;;;;;4.28;1.63;;;8.20;96.70;;;;;;5081346;28;20039;-75
2021/01/02 01:57:37;;;;;;;4.05;1.48;;;8.20;96.70;;;;;;5078230;28;20048;-75
2021/01/02 02:00:09;;;;;;;5.15;1.40;;;8.20;96.70;;;;;;5067698;28;20040;-76
2021/01/02 02:02:53;;;;;;;2.92;1.10;;;8.20;96.70;;;;;;5079291;28;20378;-75
2021/01/02 02:05:22;;;;;;;3.58;1.40;;;8.20;96.70;;;;;;5067557;28;20064;-75
2021/01/02 02:08:00;;;;;;;3.22;1.55;;;8.30;96.70;;;;;;5085854;28;20523;-76
2021/01/02 02:10:30;;;;;;;2.55;1.15;;;8.30;96.70;;;;;;5077731;28;20412;-76
2021/01/02 02:13:00;;;;;;;4.10;1.42;;;8.30;96.70;;;;;;5082230;28;20047;-76
2021/01/02 02:15:28;;;;;;;2.70;1.05;;;8.30;96.70;;;;;;5081146;28;20039;-76
2021/01/02 02:18:05;;;;;;;4.68;1.27;;;8.30;96.70;;;;;;5076199;28;20051;-76
2021/01/02 02:20:34;;;;;;;3.17;1.15;;;8.30;96.70;;;;;;5081826;28;20051;-76
2021/01/02 02:23:05;;;;;;;3.55;1.10;;;8.30;96.70;;;;;;5092611;28;20123;-76
2021/01/02 02:25:46;;;;;;;4.32;1.40;;;8.30;96.70;;;;;;5081518;28;20335;-76
2021/01/02 02:28:46;;;;;;;4.68;1.73;;;8.40;96.70;;;;;;5075562;28;20493;-76
2021/01/02 02:31:16;;;;;;;2.72;0.82;;;8.40;96.70;;;;;;5082618;28;20090;-76
2021/01/02 02:33:53;;;;;;;3.88;0.90;;;8.40;96.70;;;;;;5084119;28;20055;-76
2021/01/02 02:36:21;;;;;;;2.88;0.90;;;8.40;96.70;;;;;;5079866;28;20090;-75
2021/01/02 02:38:49;;;;;;;2.70;0.80;;;8.40;96.70;;;;;;5079825;28;20032;-75
2021/01/02 02:41:19;;;;;;;4.47;1.17;;;8.50;96.70;;;;;;5080955;28;20431;-76
2021/01/02 02:43:49;;;;;;;1.92;1.23;;;8.50;96.70;;;;;;5077971;28;20052;-75
2021/01/02 02:46:18;;;;;;;2.80;1.00;;;8.50;96.70;;;;;;5080599;28;20545;-76
2021/01/02 02:48:48;;;;;;;2.20;0.88;;;8.50;96.70;;;;;;5080029;28;20116;-75
2021/01/02 02:51:17;;;;;;;4.68;1.20;;;8.50;96.70;;;;;;5074005;28;20772;-76
2021/01/02 02:53:49;;;;;;;4.95;1.33;;;8.50;96.70;;;;;;5078253;28;20308;-76
2021/01/02 02:56:18;;;;;;;3.03;0.80;;;8.50;96.70;;;;;;5078062;28;20035;-75
2021/01/02 02:58:45;;;;;;;3.13;0.80;;;8.50;96.70;;;;;;5078950;28;20400;-76
2021/01/02 03:01:13;;;;;;;3.13;0.80;;;8.50;96.70;;;;;;5084432;28;20075;-75
2021/01/02 03:03:40;;;;;;;3.03;1.02;;;8.50;96.70;;;;;;5075710;28;20060;-76
2021/01/02 03:06:07;;;;;;;4.82;0.98;;;8.50;96.70;;;;;;5078968;28;20040;-76
2021/01/02 03:08:36;;;;;;;3.53;0.80;;;8.50;96.70;;;;;;5081479;28;20051;-75
2021/01/02 03:11:03;;;;;;;2.53;1.15;;;8.50;96.70;;;;;;5081370;28;20447;-76
2021/01/02 03:13:41;;;;;;;3.53;0.70;;;8.50;96.70;;;;;;5081599;28;20378;-75
2021/01/02 03:16:08;;;;;;;5.68;0.95;;;8.50;96.70;;;;;;5076994;28;20048;-76
2021/01/02 03:18:35;;;;;;;3.08;0.90;;;8.60;96.70;;;;;;5078984;28;20061;-75
2021/01/02 03:21:02;;;;;;;3.05;1.10;;;8.60;96.70;;;;;;5081508;28;20398;-75
2021/01/02 03:23:29;;;;;;;3.63;0.70;;;8.60;96.70;;;;;;5061668;28;20095;-75
2021/01/02 03:26:03;;;;;;;3.40;0.60;;;8.60;96.70;;;;;;5078068;28;20081;-76
2021/01/02 03:28:30;;;;;;;1.95;0.40;;;8.60;96.70;;;;;;5078500;28;20044;-75
2021/01/02 03:30:58;;;;;;;1.80;0.63;;;8.50;96.70;;;;;;5081178;28;20081;-76
2021/01/02 03:33:25;;;;;;;2.67;0.80;;;8.50;96.70;;;;;;5089624;28;20069;-76
2021/01/02 03:35:58;;;;;;;3.58;0.82;;;8.60;96.70;;;;;;5081348;28;20040;-75
2021/01/02 03:38:29;;;;;;;2.13;0.68;;;8.60;96.70;;;;;;5079503;28;20036;-76
2021/01/02 03:40:56;;;;;;;3.10;0.60;;;8.60;96.70;;;;;;5080078;28;20063;-76
2021/01/02 03:43:24;;;;;;;1.77;0.47;;;8.60;96.70;;;;;;5079748;28;20040;-75
2021/01/02 03:45:51;;;;;;;1.95;0.40;;;8.60;96.70;;;;;;5093448;28;20040;-76
2021/01/02 03:48:20;;;;;;;1.58;0.40;;;8.60;96.70;;;;;;5084223;28;20036;-76
2021/01/02 03:50:48;;;;;;;5.57;1.08;;;8.60;96.70;;;;;;5087977;28;20064;-75
2021/01/02 03:53:15;;;;;;;1.50;0.47;;;8.60;96.70;;;;;;5079230;28;20110;-75
2021/01/02 03:55:42;;;;;;;3.03;0.60;;;8.60;96.70;;;;;;5082302;28;20074;-75
2021/01/02 03:58:09;;;;;;;2.50;0.50;;;8.60;96.70;;;;;;5079821;28;20044;-76
2021/01/02 04:00:39;;;;;;;2.72;0.55;;;8.60;96.70;;;;;;5075011;28;20040;-75
2021/01/02 04:03:06;;;;;;;2.90;0.63;;;8.70;96.70;;;;;;5082419;28;20035;-75
2021/01/02 04:05:34;;;;;;;1.83;0.50;;;8.70;96.70;;;;;;5081241;28;20103;-76
2021/01/02 04:08:02;;;;;;;1.45;0.40;;;8.70;96.70;;;;;;5079513;28;20040;-76
2021/01/02 04:10:29;;;;;;;2.30;0.65;;;8.70;96.70;;;;;;5084129;28;20058;-76
2021/01/02 04:12:57;;;;;;;2.22;0.52;;;8.80;96.70;;;;;;5081694;28;20494;-75
2021/01/02 04:15:25;;;;;;;2.38;0.40;;;8.70;96.70;;;;;;5057060;28;20051;-75
2021/01/02 04:17:52;;;;;;;2.35;0.40;;;8.80;96.70;;;;;;5079492;28;20110;-76
2021/01/02 04:20:20;;;;;;;2.22;0.60;;;8.80;96.70;;;;;;5078361;28;20301;-75
2021/01/02 04:22:48;;;;;;;0.88;0.40;;;8.80;96.70;;;;;;5081186;28;20056;-75
2021/01/02 04:25:16;;;;;;;0.50;0.20;;;8.80;96.70;;;;;;5078907;28;20032;-76
2021/01/02 04:27:43;;;;;;;3.72;0.63;;;8.80;96.70;;;;;;5069700;28;20036;-75
2021/01/02 04:30:10;;;;;;;0.80;0.25;;;8.80;96.70;;;;;;5076986;28;20347;-76
2021/01/02 04:32:38;;;;;;;0.88;0.30;;;8.80;96.70;;;;;;5080606;28;20097;-76
2021/01/02 04:35:06;;;;;;;3.60;0.40;;;8.90;96.70;;;;;;5078301;28;20042;-75
2021/01/02 04:37:33;;;;;;;1.27;0.30;;;8.90;96.70;;;;;;5077910;28;20047;-75
2021/01/02 04:40:01;;;;;;;2.53;0.55;;;8.90;96.70;;;;;;5071986;28;20043;-76
2021/01/02 04:42:33;;;;;;;4.47;1.10;;;8.90;96.70;;;;;;5065951;28;20036;-71
2021/01/02 04:45:02;;;;;;;0.90;0.40;;;8.90;96.70;;;;;;5077346;28;20536;-72
2021/01/02 04:47:30;;;;;;;3.15;0.70;;;8.90;96.70;;;;;;5079288;28;20089;-72
2021/01/02 04:49:59;;;;;;;1.55;0.30;;;8.90;96.70;;;;;;5078362;28;20126;-72
2021/01/02 04:52:29;;;;;;;1.50;0.30;;;8.90;96.70;;;;;;5080576;28;20040;-71
2021/01/02 04:54:57;;;;;;;1.23;0.30;;;8.90;96.70;;;;;;5082906;28;20248;-71
2021/01/02 04:57:32;;;;;;;0.47;0.20;;;8.90;96.70;;;;;;5093355;28;20044;-71
2021/01/02 05:00:01;;;;;;;2.70;0.47;;;8.90;96.70;;;;;;5078167;28;20132;-71
2021/01/02 05:02:30;;;;;;;1.25;0.40;;;8.90;96.70;;;;;;5077105;28;20044;-71
2021/01/02 05:04:57;;;;;;;1.90;0.50;;;8.90;96.70;;;;;;5077220;28;20135;-72
2021/01/02 05:07:27;;;;;;;0.82;0.30;;;8.90;96.70;;;;;;5082727;28;20043;-71
2021/01/02 05:09:54;;;;;;;1.33;0.45;;;8.90;96.70;;;;;;5077033;28;20779;-71
2021/01/02 05:12:26;;;;;;;3.05;0.40;;;8.90;96.70;;;;;;5094228;28;20658;-71
2021/01/02 05:15:00;;;;;;;0.52;0.25;;;8.90;96.70;;;;;;5081760;28;20493;-71
2021/01/02 05:17:29;;;;;;;1.55;0.35;;;8.90;96.70;;;;;;5055182;28;20462;-72
2021/01/02 05:20:01;;;;;;;1.95;0.40;;;8.90;96.70;;;;;;5078199;28;20127;-72
2021/01/02 05:22:29;;;;;;;0.95;0.30;;;8.90;96.70;;;;;;5075734;28;20048;-72
2021/01/02 05:25:06;;;;;;;1.05;0.30;;;8.90;96.70;;;;;;5080971;28;20044;-71
2021/01/02 05:27:35;;;;;;;1.50;0.20;;;8.90;96.70;;;;;;5088587;28;20043;-72
2021/01/02 05:30:15;;;;;;;1.60;0.20;;;8.90;96.70;;;;;;5084313;28;20039;-72
2021/01/02 05:32:58;;;;;;;2.83;0.50;;;8.90;96.70;;;;;;5078259;28;20062;-71
2021/01/02 05:35:27;;;;;;;2.13;0.30;;;8.90;96.70;;;;;;5079748;28;20040;-72
2021/01/02 05:38:07;;;;;;;2.80;0.30;;;8.90;96.70;;;;;;5078907;28;20052;-71
2021/01/02 05:40:36;;;;;;;1.88;0.30;;;8.90;96.70;;;;;;5087229;28;20819;-71
2021/01/02 05:43:04;;;;;;;0.30;0.20;;;9.00;96.70;;;;;;5080501;28;20032;-72
2021/01/02 05:45:31;;;;;;;0.90;0.20;;;8.90;96.70;;;;;;5077446;28;20343;-72
2021/01/02 05:48:12;;;;;;;1.75;0.40;;;8.90;96.70;;;;;;5076103;28;20032;-71
2021/01/02 05:50:44;;;;;;;0.93;0.30;;;8.90;96.70;;;;;;5087816;28;20101;-71
2021/01/02 05:53:21;;;;;;;1.42;0.30;;;8.90;96.70;;;;;;5080990;28;20055;-71
2021/01/02 05:55:57;;;;;;;4.18;0.52;;;8.90;96.70;;;;;;5073307;28;20414;-71
2021/01/02 05:58:27;;;;;;;1.58;0.32;;;8.90;96.70;;;;;;5077178;28;20079;-71
2021/01/02 06:01:04;;;;;;;0.68;0.20;;;8.90;96.70;;;;;;5074058;28;20050;-72
2021/01/02 06:03:33;;;;;;;2.42;0.40;;;8.90;96.70;;;;;;5073239;28;20058;-71
2021/01/02 06:06:03;;;;;;;0.50;0.20;;;8.90;96.70;;;;;;5066654;28;20386;-71
2021/01/02 06:08:33;;;;;;;1.30;0.40;;;8.90;96.70;;;;;;5081452;28;20036;-71
2021/01/02 06:11:03;;;;;;;2.47;0.35;;;8.90;96.70;;;;;;5060104;28;20406;-71
2021/01/02 06:13:33;;;;;;;2.15;0.40;;;8.90;96.70;;;;;;5078523;28;20044;-71
2021/01/02 06:16:02;;;;;;;2.47;0.40;;;8.90;96.70;;;;;;5076123;28;20048;-71
2021/01/02 06:18:31;;;;;;;2.55;0.40;;;8.90;96.70;;;;;;5075749;28;21269;-71
2021/01/02 06:21:01;;;;;;;2.70;0.30;;;8.90;96.70;;;;;;5073463;28;20047;-71
2021/01/02 06:23:28;;;;;;;0.98;0.22;;;8.80;96.70;;;;;;5078471;28;20043;-71
2021/01/02 06:25:56;;;;;;;1.48;0.30;;;8.90;96.70;;;;;;5074972;28;21222;-71
2021/01/02 06:28:25;;;;;;;1.38;0.40;;;8.80;96.70;;;;;;5079657;28;20040;-71
2021/01/02 06:31:03;;;;;;;0.90;0.20;;;8.80;96.70;;;;;;5074056;28;20058;-72
2021/01/02 06:33:31;;;;;;;1.38;0.40;;;8.80;96.70;;;;;;5081883;28;20105;-71
2021/01/02 06:35:59;;;;;;;2.33;0.30;;;8.80;96.70;;;;;;5078041;28;20033;-72
2021/01/02 06:38:26;;;;;;;0.90;0.40;;;8.90;96.70;;;;;;5061046;28;20110;-72
2021/01/02 06:40:55;;;;;;;2.40;0.55;;;8.90;96.70;;;;;;5075688;28;20047;-72
2021/01/02 06:43:36;;;;;;;3.88;0.30;;;8.90;96.70;;;;;;5073269;28;20476;-71
2021/01/02 06:46:05;;;;;;;1.73;0.65;;;8.80;96.70;;;;;;5077806;28;20126;-72
2021/01/02 06:48:39;;;;;;;2.30;0.50;;;8.80;96.70;;;;;;5078286;28;20109;-72
2021/01/02 06:51:29;;;;;;;1.67;0.88;;;8.80;96.70;;;;;;5079356;28;20052;-71
2021/01/02 06:53:57;;;;;;;1.95;0.73;;;8.80;96.70;;;;;;5076708;28;20119;-72
2021/01/02 06:56:34;;;;;;;1.80;1.10;;;8.80;96.70;;;;;;5079322;28;20059;-71
2021/01/02 06:59:03;;;;;;;2.58;1.02;;;8.80;96.70;;;;;;5071224;28;20059;-71
2021/01/02 07:01:40;;;;;;;2.33;0.70;;;8.80;96.70;;;;;;5075840;28;20040;-71
2021/01/02 07:04:09;;;;;;;2.65;0.80;;;8.80;96.70;;;;;;5077556;28;20516;-71
2021/01/02 07:06:38;;;;;;;1.70;0.80;;;8.80;96.70;;;;;;5088367;28;20039;-71
2021/01/02 07:09:19;;;;;;;2.92;0.80;;;8.80;96.70;;;;;;5084829;28;20040;-72
2021/01/02 07:11:47;;;;;;;4.13;0.60;;;8.80;96.70;;;;;;5080149;28;20115;-71
2021/01/02 07:14:18;;;;;;;2.95;0.80;;;8.80;96.70;;;;;;5079509;28;20036;-71
2021/01/02 07:16:49;;;;;;;2.15;0.68;;;8.80;96.70;;;;;;5077609;28;20024;-71
2021/01/02 07:19:33;;;;;;;2.70;0.50;;;8.80;96.70;;;;;;5082141;28;20454;-70
2021/01/02 07:22:02;;;;;;;3.95;0.93;;;8.80;96.70;;;;;;5092873;28;20062;-71
2021/01/02 07:24:31;;;;;;;1.33;0.60;;;8.90;96.70;;;;;;5074671;28;20032;-72
2021/01/02 07:27:00;;;;;;;0.80;0.50;;;8.80;96.70;;;;;;5080871;28;20036;-71
2021/01/02 07:29:28;;;;;;;1.63;0.70;;;8.80;96.70;;;;;;5076028;28;20406;-71
2021/01/02 07:32:05;;;;;;;2.10;0.55;;;8.80;96.70;;;;;;5091654;28;20044;-72
2021/01/02 07:34:33;;;;;;;1.73;0.60;;;8.80;96.70;;;;;;5078017;28;20463;-71
2021/01/02 07:37:06;;;;;;;2.78;0.57;;;8.80;96.70;;;;;;5057951;28;20060;-70
2021/01/02 07:39:34;;;;;;;1.23;0.43;;;8.80;96.70;;;;;;5063124;28;20047;-71
2021/01/02 07:42:06;;;;;;;1.75;0.45;;;8.80;96.70;;;;;;5088772;28;20102;-71
2021/01/02 07:44:34;;;;;;;0.90;0.30;;;8.80;96.70;;;;;;5080014;28;20844;-71
2021/01/02 07:47:03;;;;;;;1.90;0.35;;;8.80;96.70;;;;;;5088816;28;20062;-72
2021/01/02 07:49:31;;;;;;;1.15;0.30;;;8.80;96.70;;;;;;5079511;28;20675;-71
2021/01/02 07:51:58;;;;;;;0.82;0.40;;;8.80;96.70;;;;;;5079610;28;20044;-71
2021/01/02 07:54:30;;;;;;;1.67;0.60;;;8.80;96.70;;;;;;5080543;28;20040;-72
2021/01/02 07:56:57;;;;;;;0.95;0.30;;;8.80;96.70;;;;;;5076994;28;20045;-71
2021/01/02 07:59:30;;;;;;;2.25;0.43;;;8.80;96.70;;;;;;5065627;28;20509;-71
2021/01/02 08:01:59;;;;;;;1.08;0.38;;;8.80;96.70;;;;;;5078409;28;20493;-71
2021/01/02 08:04:28;;;;;;;2.03;0.30;;;8.90;96.70;;;;;;5080939;28;20056;-71
2021/01/02 08:06:58;;;;;;;2.45;0.50;;;8.90;96.70;;;;;;5076924;28;20047;-71
2021/01/02 08:09:27;;;;;;;2.00;0.50;;;8.90;96.70;;;;;;5076865;28;20048;-71
2021/01/02 08:11:56;;;;;;;2.42;0.70;;;8.90;96.70;;;;;;5079034;28;20032;-71
2021/01/02 08:14:25;;;;;;;2.55;0.70;;;8.90;96.70;;;;;;5079386;28;20089;-71
2021/01/02 08:17:00;;;;;;;1.65;0.60;;;8.90;96.70;;;;;;5073675;28;20040;-72
2021/01/02 08:19:30;;;;;;;1.35;0.60;;;8.90;96.70;;;;;;5072972;28;20269;-71
2021/01/02 08:21:58;;;;;;;1.48;0.60;;;8.90;96.70;;;;;;5076694;28;20052;-71
2021/01/02 08:24:26;;;;;;;1.15;0.60;;;8.90;96.70;;;;;;5083863;28;20873;-71
2021/01/02 08:26:54;;;;;;;1.08;0.47;;;8.90;96.70;;;;;;5077874;28;20494;-72
2021/01/02 08:29:23;;;;;;;1.95;0.60;;;8.90;96.70;;;;;;5078757;28;20054;-72
2021/01/02 08:31:53;;;;;;;1.95;0.70;;;8.90;96.70;;;;;;5073837;28;20032;-71
2021/01/02 08:34:27;;;;;;;1.60;0.75;;;8.90;96.70;;;;;;5061781;28;20649;-71
2021/01/02 08:37:05;;;;;;;1.60;0.75;;;8.90;96.70;;;;;;5069259;28;20048;-71
2021/01/02 08:39:33;;;;;;;2.88;0.90;;;9.00;96.70;;;;;;5082232;28;20048;-71
2021/01/02 08:42:00;;;;;;;1.33;0.70;;;9.00;96.70;;;;;;5078732;28;20036;-71
2021/01/02 08:44:30;;;;;;;0.95;0.40;;;9.00;96.70;;;;;;5088523;28;20514;-72
2021/01/02 08:46:58;;;;;;;3.83;0.60;;;9.00;96.70;;;;;;5063902;28;20032;-71
2021/01/02 08:49:29;;;;;;;4.80;0.60;;;9.00;96.70;;;;;;5076933;28;20041;-71
2021/01/02 08:52:13;;;;;;;1.02;0.50;;;9.00;96.70;;;;;;5073957;28;20059;-71
2021/01/02 08:54:40;;;;;;;1.27;0.80;;;8.90;96.70;;;;;;5075896;28;20050;-71
2021/01/02 08:57:24;;;;;;;2.25;0.63;;;8.90;96.70;;;;;;5080827;28;20115;-71
2021/01/02 08:59:51;;;;;;;2.08;0.63;;;8.90;96.70;;;;;;5080004;28;20039;-72
2021/01/02 09:02:19;;;;;;;1.25;0.80;;;8.90;96.70;;;;;;5059252;28;20028;-72
2021/01/02 09:05:02;;;;;;;1.52;0.63;;;9.00;96.70;;;;;;5076258;28;20278;-72
2021/01/02 09:07:31;;;;;;;1.67;0.93;;;9.00;96.70;;;;;;5083648;28;20032;-71
2021/01/02 09:10:16;;;;;;;2.20;0.80;;;9.00;96.70;;;;;;5078877;28;20031;-71
2021/01/02 09:12:58;;;;;;;1.20;0.80;;;9.00;96.70;;;;;;5076276;28;20131;-75
2021/01/02 09:15:42;;;;;;;2.08;0.70;;;9.00;96.70;;;;;;5076051;28;20047;-75
2021/01/02 09:18:10;;;;;;;1.65;0.65;;;9.00;96.70;;;;;;5074984;28;20048;-76
2021/01/02 09:20:38;;;;;;;1.55;0.98;;;8.90;96.70;;;;;;5075236;28;20052;-75
2021/01/02 09:23:09;;;;;;;1.42;0.70;;;8.90;96.70;;;;;;5074966;28;20540;-76
2021/01/02 09:25:38;;;;;;;2.65;0.98;;;8.90;96.70;;;;;;5072711;28;20067;-76
2021/01/02 09:28:14;;;;;;;1.80;0.50;;;8.90;96.70;;;;;;5071605;28;20557;-77
2021/01/02 09:30:43;;;;;;;1.75;0.80;;;9.00;96.70;;;;;;5074353;28;20054;-76
2021/01/02 09:33:11;;;;;;;1.30;0.60;;;9.00;96.70;;;;;;5073538;28;20131;-76
2021/01/02 09:35:40;;;;;;;1.35;0.50;;;9.00;96.70;;;;;;5079365;28;20071;-76
2021/01/02 09:38:09;;;;;;;1.10;0.47;;;8.90;96.70;;;;;;5076231;28;20805;-77
2021/01/02 09:40:39;;;;;;;1.90;1.13;;;8.90;96.70;;;;;;5078386;28;20394;-76
2021/01/02 09:43:08;;;;;;;4.47;1.95;;;8.90;96.70;;;;;;5072479;28;20036;-76
2021/01/02 09:45:36;;;;;;;2.05;1.52;;;8.90;96.70;;;;;;5078741;28;20122;-76
2021/01/02 09:48:04;;;;;;;4.57;2.35;;;8.90;96.70;;;;;;5077255;28;20089;-77
2021/01/02 09:50:33;;;;;;;2.38;1.70;;;8.90;96.70;;;;;;5086517;28;20468;-76
2021/01/02 09:53:01;;;;;;;1.83;1.05;;;8.90;96.70;;;;;;5076985;28;20437;-75
2021/01/02 09:55:29;;;;;;;2.17;1.00;;;8.90;96.70;;;;;;5080492;28;20048;-76
2021/01/02 09:57:57;;;;;;;2.17;1.05;;;8.90;96.70;;;;;;5059687;28;20033;-76
2021/01/02 10:00:27;;;;;;;2.58;1.13;;;8.90;96.70;;;;;;5073048;28;20153;-76
2021/01/02 10:02:55;;;;;;;2.35;1.30;;;8.80;96.70;;;;;;5076124;28;20141;-76
2021/01/02 10:05:40;;;;;;;2.97;1.40;;;8.90;96.70;;;;;;5073074;28;20047;-76
2021/01/02 10:08:08;;;;;;;2.20;1.30;;;8.80;96.70;;;;;;5072477;28;20356;-76
2021/01/02 10:10:36;;;;;;;2.13;1.13;;;8.80;96.70;;;;;;5074778;28;20040;-76
2021/01/02 10:13:04;;;;;;;2.30;1.00;;;8.80;96.70;;;;;;5068297;28;20040;-76
2021/01/02 10:15:31;;;;;;;1.98;1.00;;;8.80;96.70;;;;;;5074074;28;20040;-76
2021/01/02 10:17:58;;;;;;;2.00;1.40;;;8.80;96.70;;;;;;5078606;28;20036;-77
2021/01/02 10:20:26;;;;;;;1.80;1.15;;;8.80;96.70;;;;;;5085304;28;20044;-76
2021/01/02 10:22:53;;;;;;;1.40;0.80;;;8.80;96.70;;;;;;5071768;28;20449;-77
2021/01/02 10:25:21;;;;;;;0.90;0.77;;;8.90;96.70;;;;;;5070141;28;20040;-76
2021/01/02 10:27:48;;;;;;;2.15;0.57;;;8.90;96.70;;;;;;5071576;28;20486;-76
2021/01/02 10:30:18;;;;;;;0.50;0.47;;;8.90;96.70;;;;;;5075211;28;20040;-77
2021/01/02 10:32:45;;;;;;;2.25;0.70;;;9.00;96.70;;;;;;5077690;28;20605;-77
2021/01/02 10:35:15;;;;;;;1.30;0.82;;;9.00;96.70;;;;;;5082454;28;20148;-76
2021/01/02 10:37:45;;;;;;;1.65;0.70;;;9.10;96.70;;;;;;5080690;28;20141;-76
2021/01/02 10:40:14;;;;;;;1.00;0.50;;;9.10;96.70;;;;;;5063470;28;20036;-76
2021/01/02 10:42:42;;;;;;;1.60;0.93;;;9.20;96.70;;;;;;5080521;28;20040;-76
2021/01/02 10:45:11;;;;;;;1.77;0.60;;;9.30;96.70;;;;;;5077431;28;20090;-76
2021/01/02 10:47:40;;;;;;;1.52;0.80;;;9.30;96.70;;;;;;5086039;28;20056;-78
2021/01/02 10:50:09;;;;;;;1.52;1.20;;;9.40;96.70;;;;;;5076478;28;20528;-76
2021/01/02 10:52:36;;;;;;;2.83;1.75;;;9.40;96.70;;;;;;5090223;28;20096;-77
2021/01/02 10:55:05;;;;;;;2.15;1.45;;;9.40;96.70;;;;;;5079750;28;20036;-77
2021/01/02 10:57:33;;;;;;;2.00;1.02;;;9.40;96.70;;;;;;5081183;28;20040;-77
2021/01/02 11:00:03;;;;;;;1.55;1.00;;;9.40;96.70;;;;;;5078738;28;20641;-77
2021/01/02 11:02:30;;;;;;;1.48;0.75;;;9.40;96.70;;;;;;5082628;28;20528;-77
2021/01/02 11:04:58;;;;;;;0.32;0.30;;;9.40;96.70;;;;;;5078859;28;20144;-77
2021/01/02 11:07:26;;;;;;;0.70;0.40;;;9.40;96.70;;;;;;5080618;28;20048;-77
2021/01/02 11:09:54;;;;;;;0.90;0.57;;;9.30;96.70;;;;;;5081035;28;20040;-77
2021/01/02 11:12:22;;;;;;;1.00;0.77;;;9.30;96.70;;;;;;5071946;28;20051;-77
2021/01/02 11:14:52;;;;;;;2.40;1.80;;;9.30;96.70;;;;;;5079491;28;20651;-77
2021/01/02 11:17:20;;;;;;;2.17;1.40;;;9.30;96.70;;;;;;5076059;28;20040;-76
2021/01/02 11:19:48;;;;;;;2.55;1.63;;;9.30;96.70;;;;;;5077450;28;20122;-76
2021/01/02 11:22:17;;;;;;;2.33;1.55;;;9.30;96.70;;;;;;5084447;28;20036;-77
2021/01/02 11:24:46;;;;;;;2.58;1.80;;;9.40;96.70;;;;;;5080353;28;20051;-76
2021/01/02 11:27:18;;;;;;;4.50;3.00;;;9.30;96.70;;;;;;5076094;28;20074;-77
2021/01/02 11:29:45;;;;;;;4.82;2.42;;;9.40;96.70;;;;;;5080418;28;20040;-77
2021/01/02 11:32:15;;;;;;;4.07;2.35;;;9.40;96.70;;;;;;5081369;28;20040;-77
2021/01/02 11:34:42;;;;;;;2.92;2.42;;;9.40;96.70;;;;;;5064908;28;20061;-77
2021/01/02 11:37:12;;;;;;;3.63;2.88;;;9.40;96.70;;;;;;5057519;28;20048;-76
2021/01/02 11:39:40;;;;;;;5.28;3.60;;;9.40;96.70;;;;;;5056538;28;20055;-76
2021/01/02 11:42:10;;;;;;;9.57;5.80;;;9.40;96.70;;;;;;5055739;28;20048;-77
2021/01/02 11:44:38;;;;;;;10.93;6.38;;;9.30;96.70;;;;;;5059288;28;20138;-76
2021/01/02 11:47:05;;;;;;;11.00;8.38;;;9.30;96.70;;;;;;5054767;28;20053;-76
2021/01/02 11:49:35;;;;;;;10.10;7.03;;;9.40;96.70;;;;;;5054734;28;20052;-75
2021/01/02 11:52:05;;;;;;;12.93;8.07;;;9.40;96.70;;;;;;5059961;28;20494;-75
2021/01/02 11:54:34;;;;;;;9.65;6.15;;;9.40;96.70;;;;;;5054227;28;20555;-76
2021/01/02 11:57:04;;;;;;;8.68;6.35;;;9.50;96.70;;;;;;5068868;28;20052;-76
2021/01/02 11:59:33;;;;;;;7.78;5.70;;;9.60;96.70;;;;;;5051202;28;20045;-76
2021/01/02 12:02:06;;;;;;;6.20;4.63;;;9.60;96.70;;;;;;5058237;28;20044;-77
2021/01/02 12:04:33;;;;;;;8.10;4.95;;;9.70;96.70;;;;;;5040689;28;20048;-76
2021/01/02 12:07:02;;;;;;;4.47;3.58;;;9.80;96.70;;;;;;5056071;28;20143;-76
2021/01/02 12:09:30;;;;;;;5.18;3.40;;;9.80;96.70;;;;;;5063848;28;20064;-75
2021/01/02 12:11:58;;;;;;;5.57;3.78;;;9.80;96.70;;;;;;5057339;28;20037;-75
2021/01/02 12:14:28;;;;;;;4.15;2.63;;;9.80;96.70;;;;;;5055468;28;20052;-75
2021/01/02 12:16:57;;;;;;;3.25;2.25;;;9.90;96.70;;;;;;5058464;28;20036;-76
2021/01/02 12:19:27;;;;;;;4.07;2.10;;;9.90;96.70;;;;;;5058031;28;20044;-76
2021/01/02 12:21:56;;;;;;;3.00;2.10;;;9.90;96.70;;;;;;5059050;28;20044;-75
2021/01/02 12:24:23;;;;;;;3.55;2.22;;;10.00;96.70;;;;;;5069636;28;20052;-76
2021/01/02 12:26:54;;;;;;;2.90;2.10;;;10.00;96.70;;;;;;5059701;28;20041;-76
2021/01/02 12:29:24;;;;;;;4.55;3.20;;;10.00;96.70;;;;;;5056967;28;20644;-76
2021/01/02 12:31:54;;;;;;;4.55;2.10;;;10.00;96.70;;;;;;5058213;28;20381;-76
2021/01/02 12:34:24;;;;;;;2.33;1.65;;;10.00;96.70;;;;;;5069699;28;20196;-76
2021/01/02 12:36:52;;;;;;;1.83;1.38;;;10.00;96.70;;;;;;5054598;28;20039;-75
2021/01/02 12:39:22;;;;;;;2.13;1.33;;;10.10;96.70;;;;;;5051489;28;20044;-75
2021/01/02 12:41:50;;;;;;;2.08;1.20;;;10.10;96.70;;;;;;5077564;28;20243;-74
2021/01/02 12:44:21;;;;;;;1.77;1.17;;;10.10;96.70;;;;;;5058964;28;20036;-75
2021/01/02 12:46:50;;;;;;;2.45;1.60;;;10.10;96.70;;;;;;5058310;28;20040;-76
2021/01/02 12:49:21;;;;;;;2.58;1.17;;;10.10;96.70;;;;;;5058606;28;20095;-76
2021/01/02 12:51:51;;;;;;;1.50;1.00;;;10.10;96.70;;;;;;5059652;28;20395;-76
2021/01/02 12:54:20;;;;;;;2.47;1.52;;;10.00;96.70;;;;;;5067232;28;20036;-77
2021/01/02 12:56:49;;;;;;;1.95;1.40;;;10.00;96.70;;;;;;5056832;28;20398;-78
2021/01/02 12:59:18;;;;;;;2.13;1.10;;;10.10;96.70;;;;;;5038994;28;20067;-75
2021/01/02 13:01:45;;;;;;;1.42;1.00;;;10.00;96.70;;;;;;5040282;28;20539;-75
2021/01/02 13:04:13;;;;;;;1.52;1.10;;;10.00;96.70;;;;;;5060298;28;20048;-76
2021/01/02 13:06:49;;;;;;;2.85;1.50;;;10.00;96.70;;;;;;5061354;28;20478;-75
2021/01/02 13:09:17;;;;;;;2.10;1.05;;;10.00;96.70;;;;;;5057450;28;20382;-75
2021/01/02 13:11:46;;;;;;;2.67;1.60;;;10.00;96.70;;;;;;5062325;28;20414;-75
2021/01/02 13:14:15;;;;;;;1.75;0.90;;;10.00;96.70;;;;;;5063066;28;20807;-75
2021/01/02 13:16:51;;;;;;;2.08;1.40;;;10.00;96.70;;;;;;5058095;28;20184;-76